Josephine, WV (25857)

9:43 AM EST on January 18, 2017 (GMT -0500)
Fairdale | | Change Station

Elev 1938 ft 37.74 °N, 81.35 °W | Updated 18 seconds ago

Overcast
Overcast
44.4 °F
Feels Like 44 °F
N
0.0
Wind Variable Wind from SE
Gusts 3.8 mph

Today
High -- | Low -- °F
--% Chance of Precip.
Yesterday
High -- | Low -- °F
Precip. -- in
Pressure 30.07 in
Visibility 10.0 miles
Clouds Mostly Cloudy 800 ft
Overcast 1500 ft
Windchill 44 °F
Dew Point 39 °F
Humidity 82%
Rainfall 0.00 in
Snow Depth Not available.
7:37 AM 5:33 PM
Waning Gibbous, 63% visible
METAR KBKW 181351Z AUTO 31010KT 10SM -RA BKN008 OVC015 05/04 A3007 RMK AO2 RAB34 CIG 004 RWY19 SLP182 P0000 T00500039
Pressure 30.07 in
Visibility 10.0 miles
Clouds Mostly Cloudy 800 ft
Overcast 1500 ft
Windchill 44 °F
Dew Point 39 °F
Humidity 82%
Rainfall 0.00 in
Snow Depth Not available.
7:37 AM 5:33 PM
Waning Gibbous, 63% visible
METAR KBKW 181351Z AUTO 31010KT 10SM -RA BKN008 OVC015 05/04 A3007 RMK AO2 RAB34 CIG 004 RWY19 SLP182 P0000 T00500039

Get Your Daily Forecast Email!

Thanks for signing up!

Be on the lookout for a verification email in your inbox.

You'll start receiving the daily forecast at 8 AM.

×

10-Day Weather Forecast

Almanac

Astronomy

Jan. 18, 2017 Rise Set
Actual Time
Civil Twilight
Nautical Twilight
Astronomical Twilight
Moon
Length of Visible Light
Length of Day
Tomorrow will be .
, % of the Moon is Illuminated

Today's Extremes

State Highs State Lows

Community

WunderPhotos

Upload Photos

1,962,540 photos uploaded!

WunderBlog® & News

Nearby

Air Quality

  Air Quality AQ Index Pollutant
Not available.

Snow Depth

Station Depth Elevation

Earthquake Activity

City Distance Mag. Time & Date
Minimum magnitude displayed is 2.5.

Coastal Water Temperatures

Place Temperature

Stations

Nearby Weather Stations

Station Location Temp. Windchill Dew Point Humidity Wind Precip. Elev Updated Type
                   

Watches & Warnings

There are currently no watches in effect.